createdAt,value
2018-11-05T00:01:45.471Z,72.40
2018-11-05T00:04:13.655Z,72.40
2018-11-05T00:06:41.818Z,72.40
2018-11-05T00:09:11.329Z,72.30
2018-11-05T00:11:44.627Z,72.30
2018-11-05T00:14:12.756Z,72.30
2018-11-05T00:16:40.922Z,72.30
2018-11-05T00:19:09.138Z,72.40
2018-11-05T00:21:37.307Z,72.50
2018-11-05T00:24:05.526Z,72.40
2018-11-05T00:26:33.658Z,72.40
2018-11-05T00:29:01.790Z,72.40
2018-11-05T00:31:29.941Z,72.40
2018-11-05T00:33:58.048Z,72.40
2018-11-05T00:36:26.218Z,72.40
2018-11-05T00:38:56.823Z,72.30
2018-11-05T00:41:25.219Z,72.40
2018-11-05T00:43:53.441Z,72.30
2018-11-05T00:46:21.610Z,72.70
2018-11-05T00:48:49.737Z,72.40
2018-11-05T00:51:17.944Z,73.10
2018-11-05T00:53:46.354Z,72.30
2018-11-05T00:56:14.522Z,72.30
2018-11-05T00:58:42.666Z,72.30
2018-11-05T01:01:10.831Z,72.30
2018-11-05T01:03:39.139Z,72.30
2018-11-05T01:06:07.308Z,72.30
2018-11-05T01:08:35.495Z,72.30
2018-11-05T01:11:03.686Z,72.30
2018-11-05T01:13:31.809Z,72.30
2018-11-05T01:16:00.007Z,72.40
2018-11-05T01:18:28.182Z,72.30
2018-11-05T01:20:56.281Z,72.40
2018-11-05T01:23:24.389Z,72.40
2018-11-05T01:25:52.480Z,72.30
2018-11-05T01:28:20.581Z,73.00
2018-11-05T01:30:48.691Z,72.60
2018-11-05T01:33:17.457Z,72.40
2018-11-05T01:35:46.187Z,72.40
2018-11-05T01:38:14.367Z,72.60
2018-11-05T01:40:42.531Z,72.40
2018-11-05T01:43:10.649Z,72.90
2018-11-05T01:45:38.814Z,73.10
2018-11-05T01:48:07.855Z,72.80
2018-11-05T01:50:36.033Z,73.30
2018-11-05T01:53:09.373Z,73.30
2018-11-05T01:55:37.530Z,73.20
2018-11-05T01:58:06.287Z,73.40
2018-11-05T02:00:34.510Z,73.30
2018-11-05T02:03:02.693Z,72.80
2018-11-05T02:05:30.879Z,73.50
2018-11-05T02:07:59.044Z,73.50
2018-11-05T02:10:27.367Z,73.30
2018-11-05T02:12:55.495Z,73.10
2018-11-05T02:15:23.650Z,73.80
2018-11-05T02:17:51.746Z,73.30
2018-11-05T02:20:19.889Z,73.20
2018-11-05T02:22:48.110Z,73.10
2018-11-05T02:25:16.279Z,72.90
2018-11-05T02:27:44.458Z,73.00
2018-11-05T02:30:16.095Z,72.70
2018-11-05T02:32:44.619Z,72.70
2018-11-05T02:35:13.597Z,72.40
2018-11-05T02:37:42.660Z,72.40
2018-11-05T02:40:13.225Z,72.50
2018-11-05T02:42:42.215Z,72.50
2018-11-05T02:45:11.649Z,72.40
2018-11-05T02:47:39.893Z,72.50
2018-11-05T02:50:10.092Z,72.40
2018-11-05T02:52:39.596Z,72.40
2018-11-05T02:55:08.502Z,72.50
2018-11-05T02:57:36.688Z,72.40
2018-11-05T03:00:08.739Z,72.40
2018-11-05T03:02:36.927Z,72.60
2018-11-05T03:05:07.476Z,72.70
2018-11-05T03:07:35.709Z,73.20
2018-11-05T03:10:05.035Z,73.60
2018-11-05T03:12:33.477Z,73.30
2018-11-05T03:15:01.605Z,73.40
2018-11-05T03:17:29.728Z,73.30
2018-11-05T03:19:57.979Z,73.70
2018-11-05T03:22:31.358Z,73.70
2018-11-05T03:24:59.500Z,74.00
2018-11-05T03:27:27.630Z,74.20
2018-11-05T03:29:57.160Z,74.10
2018-11-05T03:32:30.373Z,73.90
2018-11-05T03:34:58.495Z,74.20
2018-11-05T03:37:26.633Z,74.20
2018-11-05T03:39:54.806Z,74.10
2018-11-05T03:42:23.228Z,74.20
2018-11-05T03:44:51.345Z,74.40
2018-11-05T03:47:19.552Z,74.30
2018-11-05T03:49:47.689Z,74.40
2018-11-05T03:52:15.825Z,74.50
2018-11-05T03:54:43.914Z,74.40
2018-11-05T03:57:12.024Z,74.50
2018-11-05T03:59:40.164Z,74.60
2018-11-05T04:02:08.556Z,74.20
2018-11-05T04:04:36.663Z,74.20
2018-11-05T04:07:04.996Z,73.90
2018-11-05T04:09:33.075Z,73.90
2018-11-05T04:12:01.377Z,74.10
2018-11-05T04:14:29.448Z,74.10
2018-11-05T04:16:57.636Z,73.70
2018-11-05T04:19:25.781Z,74.00
2018-11-05T04:21:54.055Z,73.70
2018-11-05T04:24:22.210Z,73.80
2018-11-05T04:26:50.353Z,74.00
2018-11-05T04:29:18.706Z,74.00
2018-11-05T04:31:46.832Z,73.90
2018-11-05T04:34:14.961Z,73.90
2018-11-05T04:36:43.026Z,74.00
2018-11-05T04:39:15.927Z,74.10
2018-11-05T04:41:44.418Z,73.50
2018-11-05T04:44:12.641Z,74.00
2018-11-05T04:46:40.901Z,74.00
2018-11-05T04:49:16.467Z,74.00
2018-11-05T04:51:50.047Z,73.90
2018-11-05T04:54:18.167Z,73.80
2018-11-05T04:56:46.353Z,73.90
2018-11-05T04:59:14.499Z,73.30
2018-11-05T05:01:42.764Z,73.90
2018-11-05T05:04:10.890Z,73.90
2018-11-05T05:06:39.111Z,73.80
2018-11-05T05:09:11.310Z,73.70
2018-11-05T05:11:39.506Z,73.80
2018-11-05T05:14:08.026Z,73.80
2018-11-05T05:16:36.720Z,73.60
2018-11-05T05:19:04.952Z,73.70
2018-11-05T05:21:38.094Z,73.80
2018-11-05T05:24:06.383Z,73.60
2018-11-05T05:26:34.598Z,73.80
2018-11-05T05:29:02.752Z,74.00
2018-11-05T05:31:31.079Z,74.00
2018-11-05T05:33:59.258Z,74.00
2018-11-05T05:36:27.431Z,73.90
2018-11-05T05:38:55.631Z,74.00
2018-11-05T05:41:25.040Z,74.10
2018-11-05T05:43:54.856Z,74.00
2018-11-05T05:46:22.992Z,74.00
2018-11-05T05:48:51.148Z,73.80
2018-11-05T05:51:19.534Z,73.90
2018-11-05T05:53:47.597Z,73.70
2018-11-05T05:56:16.854Z,74.00
2018-11-05T05:58:45.755Z,73.90
2018-11-05T06:01:14.041Z,73.80
2018-11-05T06:03:42.576Z,74.70
2018-11-05T06:06:10.830Z,74.10
2018-11-05T06:08:38.942Z,74.30
2018-11-05T06:11:07.116Z,74.20
2018-11-05T06:13:35.297Z,74.60
2018-11-05T06:16:03.567Z,74.60
2018-11-05T06:18:31.613Z,74.80
2018-11-05T06:20:59.813Z,74.80
2018-11-05T06:23:28.017Z,74.90
2018-11-05T06:26:00.496Z,74.70
2018-11-05T06:28:32.389Z,74.70
2018-11-05T06:31:00.484Z,74.80
2018-11-05T06:33:28.556Z,75.10
2018-11-05T06:35:56.653Z,75.20
2018-11-05T06:38:24.854Z,75.10
2018-11-05T06:40:52.970Z,74.70
2018-11-05T06:43:21.131Z,75.10
2018-11-05T06:45:50.322Z,74.90
2018-11-05T06:48:18.480Z,74.50
2018-11-05T06:50:46.621Z,74.10
2018-11-05T06:53:14.866Z,73.90
2018-11-05T06:55:43.109Z,73.70
2018-11-05T06:58:11.267Z,73.30
2018-11-05T07:00:39.497Z,73.50
2018-11-05T07:03:07.725Z,73.20
2018-11-05T07:05:35.928Z,73.30
2018-11-05T07:08:04.050Z,73.40
2018-11-05T07:10:32.224Z,73.20
2018-11-05T07:13:01.887Z,73.40
2018-11-05T07:15:30.011Z,74.00
2018-11-05T07:17:58.126Z,73.50
2018-11-05T07:20:26.346Z,73.30
2018-11-05T07:22:59.542Z,73.00
2018-11-05T07:25:27.608Z,72.60
2018-11-05T07:27:56.437Z,72.60
2018-11-05T07:30:24.675Z,72.60
2018-11-05T07:32:54.138Z,72.60
2018-11-05T07:35:22.337Z,72.70
2018-11-05T07:37:50.526Z,72.90
2018-11-05T07:40:19.405Z,69.30
2018-11-05T07:42:47.689Z,67.10
2018-11-05T07:45:18.670Z,66.40
2018-11-05T07:47:47.196Z,66.40
2018-11-05T07:50:16.315Z,63.40
2018-11-05T07:52:50.127Z,63.70
2018-11-05T07:55:18.829Z,61.50
2018-11-05T07:57:47.866Z,61.80
2018-11-05T08:00:22.816Z,62.00
2018-11-05T08:02:53.249Z,63.20
2018-11-05T08:05:22.147Z,63.20
2018-11-05T08:07:50.431Z,65.20
2018-11-05T08:10:18.650Z,65.60
2018-11-05T08:12:46.964Z,66.10
2018-11-05T08:15:16.622Z,66.90
2018-11-05T08:17:45.759Z,67.30
2018-11-05T08:20:13.957Z,67.80
2018-11-05T08:22:51.587Z,67.80
2018-11-05T08:25:19.789Z,67.80
2018-11-05T08:27:49.106Z,67.90
2018-11-05T08:30:19.853Z,67.90
2018-11-05T08:32:48.132Z,67.30
2018-11-05T08:35:16.356Z,66.60
2018-11-05T08:37:45.619Z,66.20
2018-11-05T08:40:16.824Z,65.90
2018-11-05T08:42:45.826Z,65.20
2018-11-05T08:45:15.572Z,63.60
2018-11-05T08:47:43.772Z,64.10
2018-11-05T08:50:13.330Z,63.30
2018-11-05T08:52:41.490Z,63.30
2018-11-05T08:55:12.654Z,63.30
2018-11-05T08:57:44.258Z,63.40
2018-11-05T09:00:16.343Z,63.20
2018-11-05T09:02:45.782Z,63.00
2018-11-05T09:05:14.548Z,63.00
2018-11-05T09:07:43.561Z,63.20
2018-11-05T09:10:12.828Z,63.40
2018-11-05T09:12:41.115Z,62.80
2018-11-05T09:15:11.926Z,63.20
2018-11-05T09:17:40.840Z,63.00
2018-11-05T09:20:11.704Z,63.00
2018-11-05T09:22:40.073Z,62.90
2018-11-05T09:25:09.579Z,63.20
2018-11-05T09:27:37.969Z,63.30
2018-11-05T09:30:10.374Z,61.80
2018-11-05T09:32:38.714Z,61.70
2018-11-05T09:35:07.291Z,61.70
2018-11-05T09:37:35.495Z,61.10
2018-11-05T09:40:04.236Z,61.10
2018-11-05T09:42:32.539Z,60.40
2018-11-05T09:45:00.749Z,60.10
2018-11-05T09:47:28.921Z,59.90
2018-11-05T09:49:57.074Z,59.70
2018-11-05T09:52:25.411Z,59.50
2018-11-05T09:54:53.557Z,58.80
2018-11-05T09:57:21.755Z,58.40
2018-11-05T09:59:49.870Z,57.90
2018-11-05T10:02:18.342Z,57.50
2018-11-05T10:04:46.801Z,57.50
2018-11-05T10:07:14.728Z,57.00
2018-11-05T10:09:42.902Z,56.90
2018-11-05T10:12:11.117Z,56.30
2018-11-05T10:14:39.341Z,55.70
2018-11-05T10:17:09.247Z,55.20
2018-11-05T10:19:37.321Z,54.80
2018-11-05T10:22:05.660Z,54.00
2018-11-05T10:24:33.919Z,55.00
2018-11-05T10:27:01.986Z,54.30
2018-11-05T10:29:30.179Z,54.20
2018-11-05T10:31:58.361Z,54.30
2018-11-05T10:34:26.526Z,54.30
2018-11-05T10:36:54.720Z,54.40
2018-11-05T10:39:22.940Z,54.30
2018-11-05T10:41:51.541Z,55.00
2018-11-05T10:44:19.798Z,54.40
2018-11-05T10:46:48.003Z,54.40
2018-11-05T10:49:16.652Z,54.30
2018-11-05T10:51:44.915Z,54.40
2018-11-05T10:54:13.098Z,54.40
2018-11-05T10:56:41.260Z,54.40
2018-11-05T10:59:09.417Z,54.20
2018-11-05T11:01:43.076Z,53.60
2018-11-05T11:04:16.901Z,53.60
2018-11-05T11:06:45.063Z,54.40
2018-11-05T11:09:13.819Z,53.70
2018-11-05T11:11:42.253Z,54.40
2018-11-05T11:14:10.439Z,53.60
2018-11-05T11:16:38.558Z,53.70
2018-11-05T11:19:06.754Z,54.30
2018-11-05T11:21:34.911Z,54.30
2018-11-05T11:24:03.157Z,54.30
2018-11-05T11:26:31.598Z,54.20
2018-11-05T11:28:59.946Z,54.30
2018-11-05T11:31:28.080Z,54.30
2018-11-05T11:33:56.260Z,54.20
2018-11-05T11:36:25.780Z,54.00
2018-11-05T11:38:53.904Z,54.10
2018-11-05T11:41:22.027Z,54.10
2018-11-05T11:43:50.231Z,54.10
2018-11-05T11:46:18.317Z,54.00
2018-11-05T11:48:46.557Z,53.80
2018-11-05T11:51:14.723Z,53.50
2018-11-05T11:53:42.918Z,54.10
2018-11-05T11:56:11.097Z,54.70
2018-11-05T11:58:40.631Z,54.70
2018-11-05T12:01:09.751Z,54.70
2018-11-05T12:03:37.933Z,54.10
2018-11-05T12:06:06.222Z,54.60
2018-11-05T12:08:34.357Z,54.70
2018-11-05T12:11:02.650Z,54.20
2018-11-05T12:13:30.833Z,54.10
2018-11-05T12:15:59.025Z,54.40
2018-11-05T12:18:27.289Z,52.50
2018-11-05T12:20:55.489Z,51.00
2018-11-05T12:23:23.559Z,50.20
2018-11-05T12:25:51.776Z,48.20
2018-11-05T12:28:20.019Z,47.00
2018-11-05T12:30:48.125Z,46.00
2018-11-05T12:33:16.297Z,46.40
2018-11-05T12:35:44.496Z,43.70
2018-11-05T12:38:12.865Z,43.20
2018-11-05T12:40:41.031Z,41.20
2018-11-05T12:43:09.205Z,41.30
2018-11-05T12:45:37.393Z,40.40
2018-11-05T12:48:05.692Z,40.30
2018-11-05T12:50:33.873Z,40.80
2018-11-05T12:53:07.063Z,39.10
2018-11-05T12:55:35.222Z,39.30
2018-11-05T12:58:03.425Z,39.30
2018-11-05T13:00:31.638Z,38.80
2018-11-05T13:03:01.208Z,39.30
2018-11-05T13:05:30.666Z,38.70
2018-11-05T13:07:58.823Z,37.20
2018-11-05T13:10:27.050Z,37.10
2018-11-05T13:12:55.223Z,37.20
2018-11-05T13:15:23.455Z,37.20
2018-11-05T13:17:51.528Z,37.00
2018-11-05T13:20:20.805Z,37.20
2018-11-05T13:22:49.163Z,36.50
2018-11-05T13:25:17.298Z,37.00
2018-11-05T13:27:46.816Z,37.00
2018-11-05T13:30:15.319Z,37.30
2018-11-05T13:32:44.157Z,35.80
2018-11-05T13:35:13.733Z,36.90
2018-11-05T13:37:42.164Z,36.10
2018-11-05T13:40:13.853Z,36.90
2018-11-05T13:42:42.328Z,36.40
2018-11-05T13:45:11.696Z,35.90
2018-11-05T13:47:41.003Z,36.00
2018-11-05T13:50:09.337Z,36.00
2018-11-05T13:52:38.041Z,35.70
2018-11-05T13:55:07.729Z,35.70
2018-11-05T13:57:35.882Z,35.90
2018-11-05T14:00:05.713Z,35.00
2018-11-05T14:02:33.894Z,35.10
2018-11-05T14:05:02.152Z,34.80
2018-11-05T14:07:30.285Z,35.30
2018-11-05T14:09:58.463Z,35.60
2018-11-05T14:12:26.615Z,36.30
2018-11-05T14:14:54.748Z,37.10
2018-11-05T14:17:22.946Z,36.90
2018-11-05T14:19:51.040Z,36.50
2018-11-05T14:22:19.345Z,36.60
2018-11-05T14:24:47.521Z,36.60
2018-11-05T14:27:15.765Z,36.80
2018-11-05T14:29:44.945Z,36.80
2018-11-05T14:32:17.698Z,36.60
2018-11-05T14:34:45.853Z,36.80
2018-11-05T14:37:14.576Z,37.50
2018-11-05T14:39:42.873Z,38.30
2018-11-05T14:42:11.284Z,39.00
2018-11-05T14:44:39.530Z,39.50
2018-11-05T14:47:07.729Z,40.10
2018-11-05T14:49:35.959Z,40.50
2018-11-05T14:52:04.277Z,41.50
2018-11-05T14:54:32.519Z,42.20
2018-11-05T14:57:00.787Z,44.00
2018-11-05T14:59:28.942Z,43.80
2018-11-05T15:02:08.329Z,45.20
2018-11-05T15:04:36.540Z,45.00
2018-11-05T15:07:05.044Z,45.70
2018-11-05T15:09:33.244Z,46.60
2018-11-05T15:12:01.806Z,48.00
2018-11-05T15:14:30.653Z,49.50
2018-11-05T15:16:58.939Z,50.40
2018-11-05T15:19:27.604Z,50.50
2018-11-05T15:21:55.407Z,51.00
2018-11-05T15:24:23.709Z,51.90
2018-11-05T15:26:51.969Z,53.10
2018-11-05T15:29:20.019Z,53.20
2018-11-05T15:31:49.714Z,53.70
2018-11-05T15:34:20.188Z,53.60
2018-11-05T15:36:48.249Z,53.50
2018-11-05T15:39:17.063Z,54.30
2018-11-05T15:41:45.203Z,53.70
2018-11-05T15:44:13.368Z,55.30
2018-11-05T15:46:41.500Z,55.40
2018-11-05T15:49:09.637Z,56.20
2018-11-05T15:51:38.218Z,56.80
2018-11-05T15:54:06.208Z,57.70
2018-11-05T15:56:34.575Z,58.10
2018-11-05T15:59:02.755Z,59.30
2018-11-05T16:01:31.442Z,58.70
2018-11-05T16:03:59.589Z,59.40
2018-11-05T16:06:27.689Z,59.90
2018-11-05T16:08:55.914Z,60.80
2018-11-05T16:11:24.420Z,61.40
2018-11-05T16:13:52.503Z,61.20
2018-11-05T16:16:20.631Z,62.10
2018-11-05T16:18:48.765Z,62.00
2018-11-05T16:21:17.331Z,61.90
2018-11-05T16:23:45.468Z,61.90
2018-11-05T16:26:13.646Z,61.90
2018-11-05T16:28:43.710Z,63.60
2018-11-05T16:31:11.847Z,63.80
2018-11-05T16:33:40.179Z,63.80
2018-11-05T16:36:08.401Z,64.30
2018-11-05T16:38:36.650Z,64.80
2018-11-05T16:41:04.965Z,64.80
2018-11-05T16:43:33.083Z,65.60
2018-11-05T16:46:01.292Z,65.70
2018-11-05T16:48:29.489Z,65.20
2018-11-05T16:50:57.720Z,66.40
2018-11-05T16:53:26.119Z,66.30
2018-11-05T16:55:54.268Z,67.90
2018-11-05T16:58:22.424Z,67.10
2018-11-05T17:00:50.661Z,66.80
2018-11-05T17:03:28.210Z,68.40
2018-11-05T17:05:56.344Z,69.50
2018-11-05T17:08:24.528Z,68.90
2018-11-05T17:10:52.728Z,68.00
2018-11-05T17:13:50.212Z,71.00
2018-11-05T17:16:18.430Z,70.60
2018-11-05T17:18:47.369Z,71.30
2018-11-05T17:21:15.559Z,69.80
2018-11-05T17:23:43.724Z,70.00
2018-11-05T17:26:12.844Z,71.10
2018-11-05T17:28:40.937Z,71.40
2018-11-05T17:31:09.326Z,71.30
2018-11-05T17:33:37.578Z,71.30
2018-11-05T17:36:05.734Z,71.30
2018-11-05T17:38:33.833Z,71.20
2018-11-05T17:41:02.671Z,71.20
2018-11-05T17:43:30.887Z,71.20
2018-11-05T17:45:59.990Z,71.20
2018-11-05T17:48:28.938Z,72.00
2018-11-05T17:50:57.146Z,71.20
2018-11-05T17:53:26.609Z,72.20
2018-11-05T17:55:54.849Z,71.20
2018-11-05T17:58:23.099Z,71.20
2018-11-05T18:00:51.292Z,70.90
2018-11-05T18:03:19.446Z,71.20
2018-11-05T18:05:47.583Z,71.30
2018-11-05T18:08:15.785Z,71.80
2018-11-05T18:10:43.847Z,72.90
2018-11-05T18:13:12.012Z,71.80
2018-11-05T18:15:40.245Z,72.00
2018-11-05T18:18:08.460Z,72.30
2018-11-05T18:20:36.604Z,71.60
2018-11-05T18:23:05.251Z,72.30
2018-11-05T18:25:33.351Z,72.60
2018-11-05T18:28:01.561Z,71.50
2018-11-05T18:30:29.775Z,72.50
2018-11-05T18:32:57.936Z,73.20
2018-11-05T18:35:26.103Z,73.60
2018-11-05T18:37:54.300Z,73.40
2018-11-05T18:40:22.457Z,73.70
2018-11-05T18:42:50.640Z,73.30
2018-11-05T18:45:18.958Z,72.90
2018-11-05T18:47:47.099Z,73.70
2018-11-05T18:50:15.885Z,73.90
2018-11-05T18:52:44.457Z,74.00
2018-11-05T18:55:13.850Z,73.60
2018-11-05T18:57:42.038Z,73.80
2018-11-05T19:00:18.012Z,75.30
2018-11-05T19:02:46.615Z,75.40
2018-11-05T19:05:14.954Z,75.60
2018-11-05T19:07:43.056Z,76.40
2018-11-05T19:10:11.481Z,77.20
2018-11-05T19:12:39.734Z,77.30
2018-11-05T19:15:09.635Z,77.70
2018-11-05T19:17:38.688Z,77.80
2018-11-05T19:20:07.879Z,77.80
2018-11-05T19:22:36.558Z,77.20
2018-11-05T19:25:06.128Z,77.60
2018-11-05T19:27:34.354Z,78.90
2018-11-05T19:30:02.640Z,78.70
2018-11-05T19:32:30.798Z,78.30
2018-11-05T19:34:58.996Z,79.20
2018-11-05T19:37:27.195Z,79.80
2018-11-05T19:39:55.367Z,80.20
2018-11-05T19:42:23.694Z,78.50
2018-11-05T19:44:51.773Z,78.50
2018-11-05T19:47:19.944Z,78.00
2018-11-05T19:49:48.194Z,78.90
2018-11-05T19:52:17.052Z,78.90
2018-11-05T19:54:45.251Z,79.70
2018-11-05T19:57:13.438Z,79.40
2018-11-05T19:59:41.618Z,80.60
2018-11-05T20:02:09.835Z,81.20
2018-11-05T20:04:38.017Z,80.40
2018-11-05T20:07:06.458Z,79.90
2018-11-05T20:09:34.684Z,80.30
2018-11-05T20:12:03.005Z,80.00
2018-11-05T20:14:31.206Z,80.60
2018-11-05T20:16:59.536Z,79.80
2018-11-05T20:19:27.597Z,79.60
2018-11-05T20:21:56.957Z,80.00
2018-11-05T20:24:25.205Z,80.00
2018-11-05T20:26:53.450Z,79.70
2018-11-05T20:29:21.674Z,79.40
2018-11-05T20:31:55.374Z,79.60
2018-11-05T20:34:23.542Z,80.10
2018-11-05T20:36:51.566Z,80.40
2018-11-05T20:39:20.347Z,80.70
2018-11-05T20:42:02.772Z,80.70
2018-11-05T20:44:31.639Z,80.70
2018-11-05T20:46:59.845Z,80.70
2018-11-05T20:49:27.962Z,81.50
2018-11-05T20:51:56.131Z,81.50
2018-11-05T20:54:25.038Z,81.60
2018-11-05T20:56:53.301Z,80.60
2018-11-05T20:59:22.248Z,80.50
2018-11-05T21:01:50.527Z,81.60
2018-11-05T21:04:18.730Z,80.70
2018-11-05T21:06:46.944Z,80.50
2018-11-05T21:09:15.121Z,80.40
2018-11-05T21:11:43.299Z,81.00
2018-11-05T21:14:11.477Z,81.50
2018-11-05T21:16:39.650Z,80.40
2018-11-05T21:19:07.797Z,80.30
2018-11-05T21:21:36.061Z,80.40
2018-11-05T21:24:04.330Z,81.00
2018-11-05T21:26:32.608Z,83.10
2018-11-05T21:29:01.497Z,85.00
2018-11-05T21:31:30.661Z,83.20
2018-11-05T21:36:27.851Z,83.30
2018-11-05T21:38:56.062Z,83.50
2018-11-05T21:41:24.176Z,83.30
2018-11-05T21:43:52.337Z,82.70
2018-11-05T21:46:20.427Z,82.00
2018-11-05T21:48:48.587Z,81.90
2018-11-05T21:51:16.739Z,84.50
2018-11-05T21:53:45.914Z,84.10
2018-11-05T21:56:14.123Z,83.80
2018-11-05T21:58:43.231Z,84.00
2018-11-05T22:01:11.408Z,82.40
2018-11-05T22:03:39.587Z,81.80
2018-11-05T22:06:07.774Z,82.10
2018-11-05T22:08:35.978Z,82.40
2018-11-05T22:11:04.239Z,82.40
2018-11-05T22:13:32.425Z,81.50
2018-11-05T22:16:00.500Z,81.40
2018-11-05T22:18:28.653Z,81.90
2018-11-05T22:20:56.829Z,82.30
2018-11-05T22:23:25.165Z,82.70
2018-11-05T22:25:54.008Z,82.20
2018-11-05T22:28:22.116Z,83.10
2018-11-05T22:30:50.283Z,84.10
2018-11-05T22:33:18.591Z,84.20
2018-11-05T22:35:46.817Z,84.40
2018-11-05T22:38:15.053Z,83.20
2018-11-05T22:40:43.191Z,82.80
2018-11-05T22:43:11.437Z,84.90
2018-11-05T22:45:39.548Z,84.20
2018-11-05T22:48:07.674Z,84.90
2018-11-05T22:50:35.827Z,82.40
2018-11-05T22:53:08.995Z,83.00
2018-11-05T22:55:37.156Z,82.00
2018-11-05T22:58:06.085Z,81.70
2018-11-05T23:00:40.027Z,82.20
2018-11-05T23:03:31.480Z,83.20
2018-11-05T23:05:59.873Z,82.30
2018-11-05T23:08:28.039Z,82.40
2018-11-05T23:10:56.453Z,82.30
2018-11-05T23:13:48.044Z,82.70
2018-11-05T23:16:16.284Z,82.70
2018-11-05T23:18:44.413Z,83.10
2018-11-05T23:21:12.515Z,83.40
2018-11-05T23:23:40.684Z,83.40
2018-11-05T23:26:08.794Z,83.60
2018-11-05T23:28:36.989Z,83.70
2018-11-05T23:31:05.528Z,82.80
2018-11-05T23:33:33.730Z,83.00
2018-11-05T23:36:01.904Z,82.50
2018-11-05T23:38:30.050Z,83.10
2018-11-05T23:40:58.236Z,82.90
2018-11-05T23:43:26.383Z,83.50
2018-11-05T23:45:54.491Z,83.30
2018-11-05T23:48:22.628Z,82.80
2018-11-05T23:50:51.067Z,82.80
2018-11-05T23:53:20.726Z,84.10
2018-11-05T23:55:48.908Z,84.10
2018-11-05T23:58:17.107Z,84.40
